Aviation Digital Data Service (ADDS)

Output produced by METARs form (1424 UTC 10 July 2020)
found at http://www.aviationweather.gov/metar/data/
 
KTCL 101353Z 17003KT 10SM CLR 27/24 A2999 RMK AO2 SLP152 T02670239
KTCL 101140Z 1012/1112 00000KT 6SM BR SCT035 
     TEMPO 1012/1014 5SM BR 
     FM101600 29010KT P6SM SCT045 
     FM110000 33009KT P6SM SKC 
     FM110400 VRB03KT P6SM SKC